Time;durP1;ratioP1;P1;durP2;ratioP2;P2;SDS_P1;SDS_P2;PMS_P1;PMS_P2;Temp;Humidity;BMP_temperature;BMP_pressure;BME280_temperature;BME280_humidity;BME280_pressure;Samples;Min_cycle;Max_cycle;Signal;HPM_P1;HPM_P2
2024/02/13 00:01:40;;;;;;;4.18;1.98;;;;;;;18.43;41.04;101319.16;4989036;28;20121;-73
2024/02/13 00:04:08;;;;;;;4.30;1.60;;;;;;;18.40;41.15;101316.75;4993301;28;20467;-73
2024/02/13 00:06:34;;;;;;;3.75;1.70;;;;;;;18.53;41.02;101343.03;4993626;28;20026;-72
2024/02/13 00:08:59;;;;;;;3.65;1.88;;;;;;;18.39;40.94;101317.69;4993617;28;20034;-72
2024/02/13 00:11:24;;;;;;;5.28;1.60;;;;;;;18.37;41.10;101323.06;4993140;28;20068;-73
2024/02/13 00:13:50;;;;;;;3.65;1.65;;;;;;;18.49;41.16;101351.19;5008938;28;20034;-71
2024/02/13 00:16:20;;;;;;;4.80;1.83;;;;;;;18.36;41.23;101333.75;5005623;28;20053;-73
2024/02/13 00:18:46;;;;;;;3.42;1.60;;;;;;;18.31;41.19;101326.19;5005808;28;20065;-72
2024/02/13 00:21:12;;;;;;;4.45;1.60;;;;;;;18.40;41.02;101353.69;4995181;28;20030;-72
2024/02/13 00:23:38;;;;;;;5.70;2.03;;;;;;;18.34;40.92;101349.72;5013149;28;20026;-72
2024/02/13 00:26:04;;;;;;;3.85;1.77;;;;;;;18.34;41.14;101347.06;5013119;28;20120;-71
2024/02/13 00:28:29;;;;;;;5.05;2.10;;;;;;;18.28;41.03;101340.44;5012944;28;20109;-72
2024/02/13 00:30:54;;;;;;;3.40;1.70;;;;;;;18.26;40.95;101339.72;4997043;28;20034;-73
2024/02/13 00:33:19;;;;;;;4.47;1.85;;;;;;;18.28;41.01;101343.09;4993287;28;20033;-72
2024/02/13 00:35:45;;;;;;;4.88;1.73;;;;;;;18.25;40.82;101345.94;4993467;28;20121;-72
2024/02/13 00:38:13;;;;;;;3.90;1.48;;;;;;;18.23;41.06;101342.59;5005307;28;20041;-72
2024/02/13 00:40:38;;;;;;;3.92;1.58;;;;;;;18.22;40.65;101343.53;5013242;28;20053;-72
2024/02/13 00:43:04;;;;;;;4.88;1.70;;;;;;;18.21;40.37;101346.28;5012958;28;20029;-72
2024/02/13 00:45:29;;;;;;;5.03;1.98;;;;;;;18.32;40.93;101367.44;5012781;28;20030;-73
2024/02/13 00:47:56;;;;;;;4.43;1.80;;;;;;;18.24;40.70;101352.16;5012954;28;20117;-72
2024/02/13 00:50:21;;;;;;;4.68;2.05;;;;;;;18.31;40.68;101365.78;5013313;28;20033;-72
2024/02/13 00:52:49;;;;;;;3.97;1.70;;;;;;;18.27;40.36;101366.94;5012944;28;20467;-73
2024/02/13 00:55:14;;;;;;;4.10;1.90;;;;;;;18.18;40.88;101355.25;5012634;28;20137;-71
2024/02/13 00:57:39;;;;;;;4.13;1.95;;;;;;;18.24;40.76;101365.38;5012530;28;20128;-72
2024/02/13 01:00:09;;;;;;;4.28;2.00;;;;;;;18.15;40.80;101349.38;5010623;28;20033;-72
2024/02/13 01:02:34;;;;;;;3.90;1.80;;;;;;;18.16;40.46;101358.97;5003841;28;20035;-72
2024/02/13 01:05:00;;;;;;;5.30;1.90;;;;;;;18.24;40.61;101377.72;4992917;28;20037;-71
2024/02/13 01:07:25;;;;;;;4.28;1.95;;;;;;;18.16;40.41;101372.16;4993015;28;20029;-73
2024/02/13 01:09:51;;;;;;;3.95;1.90;;;;;;;18.19;40.44;101377.22;4993036;28;20110;-72
2024/02/13 01:12:16;;;;;;;3.95;1.73;;;;;;;18.22;40.52;101382.28;4993022;28;20084;-72
2024/02/13 01:14:41;;;;;;;3.30;1.70;;;;;;;18.07;40.37;101369.25;4989359;28;20030;-73
2024/02/13 01:17:07;;;;;;;4.43;1.92;;;;;;;18.13;40.25;101374.09;4989986;28;20038;-72
2024/02/13 01:19:32;;;;;;;4.07;1.83;;;;;;;18.08;40.67;101370.09;4989537;28;20497;-72
2024/02/13 01:21:57;;;;;;;4.63;2.10;;;;;;;18.16;40.60;101388.81;4989851;28;20061;-73
2024/02/13 01:24:26;;;;;;;4.65;1.85;;;;;;;18.10;40.37;101378.72;4990077;28;20077;-72
2024/02/13 01:26:52;;;;;;;5.05;2.10;;;;;;;18.05;40.42;101380.84;4989947;28;20480;-72
2024/02/13 01:29:17;;;;;;;5.93;2.17;;;;;;;18.04;40.52;101380.03;4990021;28;20119;-72
2024/02/13 01:31:43;;;;;;;5.05;1.90;;;;;;;18.08;40.32;101380.63;4989709;28;20041;-71
2024/02/13 01:34:08;;;;;;;4.10;1.70;;;;;;;18.15;40.31;101404.75;4989452;28;20038;-73
2024/02/13 01:36:35;;;;;;;5.55;1.85;;;;;;;18.15;40.56;101412.69;4989770;28;20030;-72
2024/02/13 01:39:03;;;;;;;3.75;1.77;;;;;;;18.09;40.35;101409.53;4989631;28;20062;-71
2024/02/13 01:41:29;;;;;;;6.53;2.47;;;;;;;18.10;40.51;101413.88;4989811;28;20031;-71
2024/02/13 01:43:55;;;;;;;4.82;2.00;;;;;;;18.00;40.54;101394.38;4989666;28;20030;-72
2024/02/13 01:46:20;;;;;;;4.97;2.13;;;;;;;18.08;40.10;101410.47;4989984;28;20037;-73
2024/02/13 01:48:46;;;;;;;5.95;2.10;;;;;;;18.09;40.33;101413.97;4989393;28;20386;-72
2024/02/13 01:51:13;;;;;;;4.10;1.90;;;;;;;18.12;40.34;101419.03;4989452;28;20034;-73
2024/02/13 01:53:39;;;;;;;4.07;1.92;;;;;;;18.10;40.31;101418.28;4989193;28;20045;-72
2024/02/13 01:56:07;;;;;;;4.30;1.92;;;;;;;18.00;40.25;101396.19;4989048;28;20050;-73
2024/02/13 01:58:34;;;;;;;4.35;2.00;;;;;;;18.05;40.45;101405.44;4989187;28;20041;-73
2024/02/13 02:01:01;;;;;;;4.47;2.03;;;;;;;18.07;40.03;101407.94;4988985;28;20026;-72
2024/02/13 02:03:34;;;;;;;4.72;2.00;;;;;;;17.95;40.21;101388.59;4996479;28;20049;-72
2024/02/13 02:06:00;;;;;;;4.70;2.03;;;;;;;18.03;40.34;101409.97;5008254;28;20037;-73
2024/02/13 02:08:26;;;;;;;5.18;2.35;;;;;;;18.06;40.12;101406.28;5008490;28;20030;-72
2024/02/13 02:10:53;;;;;;;5.47;2.33;;;;;;;18.01;40.10;101403.97;5008663;28;20041;-73
2024/02/13 02:13:19;;;;;;;4.20;2.00;;;;;;;17.93;40.12;101401.06;5006557;28;20625;-73
2024/02/13 02:15:44;;;;;;;5.93;2.33;;;;;;;18.01;40.59;101416.31;4988369;28;20031;-71
2024/02/13 02:18:13;;;;;;;4.88;2.30;;;;;;;17.90;40.39;101393.38;4988782;28;20434;-74
2024/02/13 02:20:39;;;;;;;4.15;2.13;;;;;;;17.93;40.19;101403.69;4989055;28;21233;-73
2024/02/13 02:23:05;;;;;;;4.60;2.13;;;;;;;17.90;40.07;101410.00;4988632;28;20026;-72
2024/02/13 02:25:30;;;;;;;3.85;2.08;;;;;;;17.99;40.21;101423.50;4988716;28;20030;-72
2024/02/13 02:27:55;;;;;;;4.75;2.55;;;;;;;18.03;40.09;101424.97;4988727;28;20173;-72
2024/02/13 02:30:22;;;;;;;4.68;2.03;;;;;;;17.84;40.38;101405.16;4988974;28;20034;-71
2024/02/13 02:32:47;;;;;;;5.82;2.28;;;;;;;17.96;40.09;101424.56;4989382;28;20124;-71
2024/02/13 02:35:13;;;;;;;5.07;2.08;;;;;;;17.79;40.33;101399.38;4990720;28;20065;-72
2024/02/13 02:37:40;;;;;;;4.40;2.05;;;;;;;17.92;39.92;101423.09;4989833;28;20030;-72
2024/02/13 02:40:06;;;;;;;5.25;2.38;;;;;;;17.95;40.03;101415.78;4988952;28;20026;-72
2024/02/13 02:42:31;;;;;;;4.47;2.50;;;;;;;17.91;39.97;101416.13;4989546;28;20045;-72
2024/02/13 02:44:57;;;;;;;5.03;2.08;;;;;;;17.96;40.20;101427.22;4996215;28;20034;-73
2024/02/13 02:47:23;;;;;;;4.82;2.30;;;;;;;17.89;40.06;101412.75;4996992;28;20030;-72
2024/02/13 02:49:48;;;;;;;5.03;2.25;;;;;;;17.83;40.25;101406.13;4988557;28;20036;-73
2024/02/13 02:52:14;;;;;;;5.25;2.45;;;;;;;17.86;40.02;101415.59;4988555;28;20030;-72
2024/02/13 02:54:41;;;;;;;5.05;2.15;;;;;;;17.92;39.97;101423.94;4988492;28;20096;-72
2024/02/13 02:57:07;;;;;;;5.35;2.35;;;;;;;17.78;40.17;101400.31;4987391;28;20395;-73
2024/02/13 02:59:32;;;;;;;4.47;2.30;;;;;;;17.94;40.27;101427.31;4987907;28;20045;-72
2024/02/13 03:01:58;;;;;;;4.80;2.17;;;;;;;17.92;39.95;101423.09;4987560;28;20045;-72
2024/02/13 03:04:25;;;;;;;5.32;2.40;;;;;;;17.88;40.19;101421.63;4988025;28;20030;-73
2024/02/13 03:06:51;;;;;;;6.63;2.30;;;;;;;17.85;39.91;101422.66;5003088;28;20057;-71
2024/02/13 03:09:16;;;;;;;4.38;2.22;;;;;;;17.88;40.15;101429.53;4987597;28;20478;-72
2024/02/13 03:11:42;;;;;;;4.88;2.30;;;;;;;17.78;39.82;101413.47;4988015;28;20036;-72
2024/02/13 03:14:09;;;;;;;5.75;2.42;;;;;;;17.89;39.76;101429.41;4987924;28;20044;-73
2024/02/13 03:16:35;;;;;;;5.03;2.40;;;;;;;17.88;40.04;101433.03;4987932;28;20034;-73
2024/02/13 03:19:05;;;;;;;4.95;2.30;;;;;;;17.85;39.93;101427.06;4987663;28;20489;-73
2024/02/13 03:21:31;;;;;;;4.10;2.08;;;;;;;17.77;39.86;101417.09;5006967;28;20026;-73
2024/02/13 03:23:57;;;;;;;4.95;2.28;;;;;;;17.72;40.04;101417.41;5006825;28;20422;-73
2024/02/13 03:26:22;;;;;;;4.95;2.60;;;;;;;17.77;40.39;101425.84;4989418;28;20030;-72
2024/02/13 03:28:47;;;;;;;4.18;2.08;;;;;;;17.71;39.89;101415.72;5007176;28;20093;-71
2024/02/13 03:31:12;;;;;;;5.07;2.47;;;;;;;17.71;39.93;101417.53;5007151;28;20075;-73
2024/02/13 03:33:38;;;;;;;5.30;2.63;;;;;;;17.69;40.11;101415.00;4987459;28;20038;-73
2024/02/13 03:36:03;;;;;;;4.63;2.03;;;;;;;17.72;40.06;101429.72;4985885;28;20156;-72
2024/02/13 03:38:28;;;;;;;4.47;2.10;;;;;;;17.70;40.18;101421.09;4987099;28;20128;-72
2024/02/13 03:40:54;;;;;;;5.15;2.45;;;;;;;17.75;39.90;101440.06;4985934;28;20085;-72
2024/02/13 03:43:21;;;;;;;4.13;2.35;;;;;;;17.70;39.80;101421.09;4987139;28;20026;-73
2024/02/13 03:45:47;;;;;;;5.30;2.22;;;;;;;17.76;39.87;101442.59;4987013;28;20406;-72
2024/02/13 03:48:12;;;;;;;4.70;2.22;;;;;;;17.71;39.90;101431.53;4987218;28;20038;-71
2024/02/13 03:50:37;;;;;;;5.20;2.30;;;;;;;17.74;39.83;101438.41;4987423;28;20039;-72
2024/02/13 03:53:05;;;;;;;4.47;1.95;;;;;;;17.63;39.71;101425.97;4987197;28;20107;-73
2024/02/13 03:55:30;;;;;;;5.50;2.35;;;;;;;17.68;39.90;101429.13;4987216;28;20384;-74
2024/02/13 03:57:57;;;;;;;4.63;2.38;;;;;;;17.69;40.21;101441.34;4986649;28;20050;-71
2024/02/13 04:00:23;;;;;;;4.47;2.15;;;;;;;17.63;39.94;101439.16;4987183;28;20029;-72
2024/02/13 04:02:48;;;;;;;4.10;1.83;;;;;;;17.79;39.74;101465.28;4986394;28;20034;-72
2024/02/13 04:05:14;;;;;;;4.10;1.92;;;;;;;17.70;40.22;101447.47;4987387;28;20038;-73
2024/02/13 04:07:40;;;;;;;5.05;2.33;;;;;;;17.72;39.95;101462.22;4987277;28;20061;-73
2024/02/13 04:10:06;;;;;;;4.18;2.20;;;;;;;17.56;39.50;101441.38;4987467;28;20104;-72
2024/02/13 04:12:31;;;;;;;4.40;2.08;;;;;;;17.60;40.05;101442.00;4986786;28;20471;-73
2024/02/13 04:14:57;;;;;;;4.32;2.00;;;;;;;17.72;39.86;101464.88;4987111;28;20033;-73
2024/02/13 04:17:22;;;;;;;4.28;2.13;;;;;;;17.62;39.83;101448.00;4987428;28;20177;-73
2024/02/13 04:19:47;;;;;;;4.05;2.00;;;;;;;17.56;39.72;101444.00;4986813;28;20109;-73
2024/02/13 04:22:12;;;;;;;5.35;2.42;;;;;;;17.69;39.76;101459.81;4986792;28;20038;-72
2024/02/13 04:24:38;;;;;;;4.88;2.05;;;;;;;17.66;39.94;101454.75;4987126;28;20109;-73
2024/02/13 04:27:04;;;;;;;4.30;2.13;;;;;;;17.57;39.75;101442.19;4986542;28;20479;-73
2024/02/13 04:29:29;;;;;;;5.05;1.90;;;;;;;17.59;39.89;101442.94;4986752;28;20487;-73
2024/02/13 04:31:55;;;;;;;4.60;2.10;;;;;;;17.71;39.66;101460.53;4986686;28;20080;-73
2024/02/13 04:34:20;;;;;;;4.65;2.10;;;;;;;17.58;39.75;101447.38;4990409;28;20046;-73
2024/02/13 04:36:45;;;;;;;3.20;1.75;;;;;;;17.66;39.87;101464.47;5006234;28;20033;-72
2024/02/13 04:39:11;;;;;;;4.90;2.13;;;;;;;17.69;39.93;101473.00;5006340;28;20382;-73
2024/02/13 04:41:36;;;;;;;3.40;1.85;;;;;;;17.63;39.64;101473.41;5006101;28;20052;-73
2024/02/13 04:44:02;;;;;;;4.68;1.98;;;;;;;17.65;40.02;101484.69;5006155;28;20034;-72
2024/02/13 04:46:27;;;;;;;5.55;1.83;;;;;;;17.59;39.50;101483.31;5006245;28;20076;-73
2024/02/13 04:48:53;;;;;;;5.20;1.95;;;;;;;17.52;39.81;101466.22;5008139;28;20105;-73
2024/02/13 04:51:19;;;;;;;5.88;2.08;;;;;;;17.51;39.55;101468.97;5009612;28;20038;-73
2024/02/13 04:53:45;;;;;;;3.33;1.80;;;;;;;17.61;39.67;101488.50;5009896;28;20041;-73
2024/02/13 04:56:10;;;;;;;4.40;2.08;;;;;;;17.57;39.44;101477.28;5009440;28;20057;-73
2024/02/13 04:58:39;;;;;;;4.18;2.00;;;;;;;17.52;39.43;101471.50;5009901;28;20030;-73
2024/02/13 05:01:09;;;;;;;4.53;1.73;;;;;;;17.61;39.37;101479.72;5009853;28;20561;-73
2024/02/13 05:08:57;;;;;;;;;;;;;;;17.62;39.70;101487.53;4990745;28;20049;-73
2024/02/13 05:11:31;;;;;;;4.22;1.80;;;;;;;17.58;39.68;101480.78;4988782;28;19914;-72
2024/02/13 05:13:59;;;;;;;4.65;1.92;;;;;;;17.55;39.62;101483.63;4990234;28;20035;-72
2024/02/13 05:16:26;;;;;;;4.70;1.80;;;;;;;17.50;39.43;101475.19;4990374;28;20073;-74
2024/02/13 05:18:52;;;;;;;5.93;2.13;;;;;;;17.61;39.67;101500.81;4990037;28;20041;-73
2024/02/13 05:21:21;;;;;;;4.40;2.00;;;;;;;17.40;39.71;101457.41;4990194;28;20034;-71
2024/02/13 05:23:47;;;;;;;4.43;2.03;;;;;;;17.53;39.49;101481.09;4988973;28;20474;-70
2024/02/13 05:26:13;;;;;;;3.42;1.60;;;;;;;17.47;39.70;101470.97;4989581;28;20465;-72
2024/02/13 05:28:39;;;;;;;5.30;1.98;;;;;;;17.50;39.54;101480.44;4989827;28;20034;-72
2024/02/13 05:31:08;;;;;;;4.43;1.92;;;;;;;17.48;39.57;101474.44;4990145;28;20030;-72
2024/02/13 05:33:34;;;;;;;3.42;1.85;;;;;;;17.51;39.62;101480.34;4989416;28;20395;-72
2024/02/13 05:36:01;;;;;;;4.28;2.00;;;;;;;17.41;39.58;101466.97;4989932;28;20027;-72
2024/02/13 05:38:27;;;;;;;4.28;1.70;;;;;;;17.46;39.60;101471.09;4989346;28;20042;-72
2024/02/13 05:40:52;;;;;;;3.97;1.90;;;;;;;17.45;39.72;101466.75;4990260;28;20088;-73
2024/02/13 05:43:17;;;;;;;3.15;1.52;;;;;;;17.37;39.47;101454.97;4988353;28;20116;-72
2024/02/13 05:45:42;;;;;;;3.70;1.63;;;;;;;17.46;39.46;101477.19;4989614;28;20038;-73
2024/02/13 05:48:09;;;;;;;4.00;1.50;;;;;;;17.54;39.85;101484.56;4989476;28;20041;-73
2024/02/13 05:50:35;;;;;;;3.97;1.67;;;;;;;17.59;40.19;101487.72;4989760;28;20038;-73
2024/02/13 05:53:01;;;;;;;3.95;1.90;;;;;;;17.32;40.43;101441.28;4989428;28;20695;-73
2024/02/13 05:55:28;;;;;;;3.78;1.42;;;;;;;17.47;40.46;101456.97;4989492;28;20109;-72
2024/02/13 05:57:53;;;;;;;2.75;1.50;;;;;;;17.65;40.76;101484.69;4995065;28;20052;-72
2024/02/13 06:00:19;;;;;;;3.78;1.40;;;;;;;17.69;41.05;101490.56;5006384;28;20034;-72
2024/02/13 06:02:45;;;;;;;3.10;1.25;;;;;;;17.72;40.83;101495.63;4986163;28;20076;-72
2024/02/13 06:05:11;;;;;;;3.88;1.35;;;;;;;17.76;40.61;101503.22;4996662;28;20065;-72
2024/02/13 06:07:36;;;;;;;3.08;1.42;;;;;;;17.77;40.86;101496.19;4989100;28;20157;-72
2024/02/13 06:10:02;;;;;;;3.88;1.25;;;;;;;17.72;40.90;101491.22;4988864;28;20034;-71
2024/02/13 06:12:29;;;;;;;3.47;1.40;;;;;;;17.71;40.80;101483.44;4989176;28;20097;-73
2024/02/13 06:14:54;;;;;;;3.47;1.33;;;;;;;17.85;40.91;101506.16;4989461;28;20053;-72
2024/02/13 06:17:20;;;;;;;4.20;1.40;;;;;;;17.92;40.89;101515.38;4987583;28;20479;-73
2024/02/13 06:19:45;;;;;;;4.78;1.40;;;;;;;17.79;40.75;101489.00;4988697;28;21304;-72
2024/02/13 06:22:10;;;;;;;3.22;1.30;;;;;;;17.91;40.73;101497.88;4987483;28;20038;-73
2024/02/13 06:24:36;;;;;;;4.63;1.50;;;;;;;17.94;40.72;101511.72;4988775;28;20049;-73
2024/02/13 06:27:02;;;;;;;3.08;1.30;;;;;;;17.86;40.69;101490.25;4990125;28;20080;-72
2024/02/13 06:29:27;;;;;;;3.17;1.30;;;;;;;17.98;40.49;101507.06;4989982;28;20041;-71
2024/02/13 06:31:54;;;;;;;3.97;1.35;;;;;;;17.89;40.52;101491.88;5005214;28;20038;-72
2024/02/13 06:34:21;;;;;;;3.08;1.30;;;;;;;17.97;40.63;101501.88;4990826;28;20030;-73
2024/02/13 06:36:46;;;;;;;2.67;1.20;;;;;;;17.99;40.73;101500.84;4993434;28;20034;-72
2024/02/13 06:39:12;;;;;;;4.00;1.45;;;;;;;18.03;40.59;101504.09;5008109;28;20084;-72
2024/02/13 06:41:39;;;;;;;2.47;1.13;;;;;;;17.92;40.67;101489.84;4990485;28;20042;-71
2024/02/13 06:44:05;;;;;;;3.15;1.25;;;;;;;18.07;40.50;101510.81;4986780;28;20494;-72
2024/02/13 06:46:31;;;;;;;2.83;1.30;;;;;;;17.95;40.21;101497.56;4994715;28;20030;-73
2024/02/13 06:48:57;;;;;;;4.10;1.50;;;;;;;17.99;40.22;101497.34;5008735;28;20355;-72
2024/02/13 06:51:23;;;;;;;5.20;1.50;;;;;;;18.12;40.39;101520.13;5008468;28;20053;-73
2024/02/13 06:53:48;;;;;;;3.53;1.25;;;;;;;18.06;40.70;101511.78;5008736;28;20030;-70
2024/02/13 06:56:14;;;;;;;4.60;1.38;;;;;;;18.08;40.65;101512.53;4988814;28;20053;-72
2024/02/13 06:58:40;;;;;;;3.78;1.25;;;;;;;18.07;40.84;101514.31;5004029;28;20046;-73
2024/02/13 07:01:06;;;;;;;3.50;1.27;;;;;;;18.04;40.92;101505.75;4989792;28;20033;-72
2024/02/13 07:03:31;;;;;;;4.32;1.30;;;;;;;18.04;40.94;101506.63;4990702;28;20382;-74
2024/02/13 07:05:57;;;;;;;3.28;1.20;;;;;;;18.19;40.91;101538.16;4992059;28;20033;-73
2024/02/13 07:08:23;;;;;;;3.42;1.50;;;;;;;18.19;40.86;101544.25;4992605;28;20131;-72
2024/02/13 07:10:48;;;;;;;4.35;1.20;;;;;;;18.20;40.76;101547.72;4991568;28;20478;-72
2024/02/13 07:13:13;;;;;;;4.03;1.45;;;;;;;18.05;40.88;101518.00;5003733;28;20038;-73
2024/02/13 07:15:39;;;;;;;3.05;1.10;;;;;;;18.03;40.93;101522.56;4988012;28;20034;-73
2024/02/13 07:18:06;;;;;;;4.18;1.58;;;;;;;18.16;40.71;101538.38;4987792;28;20048;-73
2024/02/13 07:20:32;;;;;;;3.05;1.50;;;;;;;18.09;40.86;101527.41;4987813;28;20088;-72
2024/02/13 07:22:58;;;;;;;4.10;1.30;;;;;;;18.15;40.77;101539.31;4987929;28;20030;-73
2024/02/13 07:25:23;;;;;;;3.17;1.40;;;;;;;18.16;41.03;101538.38;4996662;28;20040;-73
2024/02/13 07:27:49;;;;;;;3.90;1.60;;;;;;;18.11;40.64;101530.78;5007014;28;20116;-73
2024/02/13 07:30:15;;;;;;;3.90;1.40;;;;;;;18.21;40.77;101552.06;4996292;28;20050;-72
2024/02/13 07:32:40;;;;;;;4.28;1.40;;;;;;;18.14;40.80;101541.09;4987560;28;20030;-73
2024/02/13 07:35:06;;;;;;;4.15;1.58;;;;;;;18.18;40.66;101555.75;4987393;28;20467;-72
2024/02/13 07:37:31;;;;;;;3.83;1.30;;;;;;;18.23;40.63;101568.63;4992603;28;20854;-73
2024/02/13 07:40:01;;;;;;;4.15;1.63;;;;;;;18.18;40.51;101558.38;5007112;28;21233;-73
2024/02/13 07:42:28;;;;;;;3.83;1.30;;;;;;;18.15;40.47;101560.41;5007417;28;20057;-72
2024/02/13 07:44:57;;;;;;;4.25;1.58;;;;;;;18.20;40.57;101566.19;4999236;28;20035;-72
2024/02/13 07:47:25;;;;;;;4.72;1.50;;;;;;;18.09;40.33;101546.69;4987571;28;20030;-72
2024/02/13 07:49:52;;;;;;;3.38;1.25;;;;;;;18.18;40.38;101561.03;4987306;28;20030;-73
2024/02/13 07:52:18;;;;;;;3.97;1.60;;;;;;;18.24;40.35;101570.31;4987376;28;20038;-72
2024/02/13 07:54:47;;;;;;;4.15;1.83;;;;;;;18.22;40.15;101567.78;4987065;28;20030;-72
2024/02/13 07:57:16;;;;;;;4.65;1.65;;;;;;;18.20;40.15;101563.56;5001988;28;20054;-72
2024/02/13 07:59:42;;;;;;;3.70;1.58;;;;;;;18.23;40.28;101577.41;4987029;28;20125;-73
2024/02/13 08:02:09;;;;;;;4.00;1.30;;;;;;;18.19;40.11;101569.81;4986481;28;20492;-72
2024/02/13 08:04:36;;;;;;;3.10;1.20;;;;;;;18.06;40.09;101554.00;4986981;28;20356;-71
2024/02/13 08:07:01;;;;;;;3.50;1.23;;;;;;;18.23;40.07;101582.69;4987130;28;20034;-72
2024/02/13 08:09:27;;;;;;;3.70;1.50;;;;;;;18.24;40.16;101578.22;4986855;28;20038;-71
2024/02/13 08:11:53;;;;;;;6.80;2.25;;;;;;;18.19;38.50;101583.00;4986935;28;20034;-72
2024/02/13 08:14:19;;;;;;;6.95;1.83;;;;;;;18.19;39.81;101580.34;4986698;28;20489;-67
2024/02/13 08:16:45;;;;;;;4.95;1.60;;;;;;;18.08;40.44;101560.84;4989065;28;20022;-70
2024/02/13 08:19:11;;;;;;;7.18;1.98;;;;;;;18.10;40.51;101569.50;4994642;28;20117;-73
2024/02/13 08:21:37;;;;;;;8.25;1.75;;;;;;;18.19;40.64;101585.63;4986723;28;20129;-71
2024/02/13 08:24:06;;;;;;;5.18;1.70;;;;;;;18.19;40.86;101588.28;4986981;28;20030;-72
2024/02/13 08:26:31;;;;;;;5.88;1.80;;;;;;;18.22;41.31;101590.69;4988309;28;20069;-75
2024/02/13 08:28:57;;;;;;;5.45;1.52;;;;;;;18.19;41.64;101586.47;4989710;28;20445;-72
2024/02/13 08:31:23;;;;;;;6.57;1.90;;;;;;;18.15;41.69;101570.97;4989474;28;20026;-72
2024/02/13 08:33:48;;;;;;;8.25;1.88;;;;;;;18.25;41.59;101582.56;4990039;28;20030;-71
2024/02/13 08:36:13;;;;;;;5.25;1.55;;;;;;;18.28;42.21;101587.63;4989574;28;20036;-72
2024/02/13 08:38:41;;;;;;;8.85;2.10;;;;;;;18.24;42.30;101573.78;4989211;28;20038;-72
2024/02/13 08:41:07;;;;;;;8.45;1.70;;;;;;;18.33;42.59;101587.31;4989449;28;20038;-71
2024/02/13 08:43:32;;;;;;;6.95;1.73;;;;;;;18.41;42.78;101598.16;4989675;28;20143;-74
2024/02/13 08:46:00;;;;;;;5.60;2.20;;;;;;;18.41;42.79;101600.81;4989382;28;20137;-72
2024/02/13 08:48:25;;;;;;;8.60;2.03;;;;;;;18.33;43.08;101577.59;4989304;28;20038;-74
2024/02/13 08:50:53;;;;;;;5.78;1.83;;;;;;;18.45;42.87;101596.97;4989710;28;20030;-73
2024/02/13 08:53:18;;;;;;;8.32;1.83;;;;;;;18.45;42.84;101600.50;4989502;28;20038;-71
2024/02/13 08:55:44;;;;;;;6.28;1.70;;;;;;;18.41;43.01;101592.88;4989006;28;20050;-73
2024/02/13 08:58:09;;;;;;;9.18;2.20;;;;;;;18.49;43.45;101607.22;4993889;28;20038;-74
2024/02/13 09:00:35;;;;;;;10.32;2.22;;;;;;;18.39;43.15;101587.72;5002788;28;20042;-71
2024/02/13 09:03:01;;;;;;;6.57;1.92;;;;;;;18.40;43.32;101581.47;4996753;28;20041;-73
2024/02/13 09:05:27;;;;;;;6.90;1.75;;;;;;;18.43;43.62;101590.97;4988485;28;20099;-73
2024/02/13 09:07:52;;;;;;;7.35;1.70;;;;;;;18.42;43.64;101589.28;4989785;28;20141;-72
2024/02/13 09:10:17;;;;;;;6.82;1.73;;;;;;;18.53;43.79;101612.28;4989474;28;20122;-72
2024/02/13 09:12:45;;;;;;;9.00;1.85;;;;;;;18.56;43.82;101617.34;4989625;28;20946;-70
2024/02/13 09:15:12;;;;;;;5.72;1.55;;;;;;;18.48;43.81;101615.25;4986161;28;20031;-73
2024/02/13 09:17:44;;;;;;;7.55;1.98;;;;;;;18.52;43.11;101614.09;4997163;28;20034;-72
2024/02/13 09:20:14;;;;;;;8.13;2.10;;;;;;;18.41;43.58;101606.91;4988755;28;20060;-71
2024/02/13 09:22:45;;;;;;;10.38;2.22;;;;;;;18.40;44.18;101601.75;4997329;28;20029;-71
2024/02/13 09:25:12;;;;;;;9.10;2.25;;;;;;;18.56;44.14;101630.53;5008503;28;20041;-73
2024/02/13 09:27:39;;;;;;;8.50;2.10;;;;;;;18.54;44.15;101622.72;5008126;28;20044;-72
2024/02/13 09:30:06;;;;;;;8.18;2.25;;;;;;;18.54;43.99;101619.25;5008136;28;20064;-71
2024/02/13 09:32:35;;;;;;;8.02;2.20;;;;;;;18.44;43.97;101611.97;5004543;28;20534;-71
2024/02/13 09:35:05;;;;;;;9.20;1.90;;;;;;;18.41;43.63;101609.56;4984736;28;20401;-71
2024/02/13 09:37:40;;;;;;;10.57;2.05;;;;;;;18.56;44.05;101635.81;5007949;28;20453;-69
2024/02/13 09:40:13;;;;;;;9.40;1.67;;;;;;;18.55;44.08;101631.47;5008523;28;20053;-69
2024/02/13 09:42:39;;;;;;;9.68;1.88;;;;;;;18.42;43.99;101620.94;5007403;28;20038;-71
2024/02/13 09:45:06;;;;;;;9.35;2.50;;;;;;;18.36;44.01;101606.41;4987752;28;20359;-73
2024/02/13 09:47:33;;;;;;;9.73;2.25;;;;;;;18.50;43.98;101634.47;5007867;28;20022;-72
2024/02/13 09:49:59;;;;;;;9.57;1.60;;;;;;;18.49;44.20;101632.78;5007619;28;20026;-73
2024/02/13 09:52:29;;;;;;;5.97;1.58;;;;;;;18.50;44.08;101629.19;4990144;28;20044;-73
2024/02/13 09:54:56;;;;;;;6.10;1.83;;;;;;;18.34;43.67;101603.03;5005543;28;20056;-73
2024/02/13 09:57:22;;;;;;;5.03;1.35;;;;;;;18.50;43.91;101637.13;5007582;28;20528;-72
2024/02/13 09:59:48;;;;;;;7.38;1.80;;;;;;;18.46;43.86;101640.91;5007756;28;20061;-72
2024/02/13 10:02:15;;;;;;;4.95;1.45;;;;;;;18.42;43.88;101626.22;5001504;28;20034;-72
2024/02/13 10:04:40;;;;;;;8.63;1.45;;;;;;;18.38;43.95;101615.06;4987921;28;20513;-69
2024/02/13 10:07:06;;;;;;;4.00;1.33;;;;;;;18.44;43.84;101630.47;4987938;28;20034;-69
2024/02/13 10:09:32;;;;;;;6.10;1.73;;;;;;;18.48;43.75;101642.50;4986552;28;20088;-72
2024/02/13 10:12:09;;;;;;;6.32;1.40;;;;;;;18.44;43.83;101630.47;4988018;28;20034;-72
2024/02/13 10:14:34;;;;;;;4.88;1.30;;;;;;;18.33;44.24;101621.63;4988169;28;20052;-72
2024/02/13 10:17:09;;;;;;;6.75;1.50;;;;;;;18.45;44.24;101631.28;5004536;28;20113;-72
2024/02/13 10:19:35;;;;;;;7.18;1.40;;;;;;;18.34;43.73;101613.59;5007996;28;20030;-70
2024/02/13 10:22:09;;;;;;;7.55;1.40;;;;;;;18.39;43.86;101621.16;5008115;28;20544;-70
2024/02/13 10:24:35;;;;;;;6.13;1.42;;;;;;;18.44;43.89;101616.44;5008120;28;20030;-71
2024/02/13 10:27:03;;;;;;;6.45;1.83;;;;;;;18.47;43.73;101632.06;5008318;28;20084;-71
2024/02/13 10:29:39;;;;;;;12.63;1.75;;;;;;;18.36;43.99;101613.47;5007589;28;20036;-72
2024/02/13 10:32:07;;;;;;;5.82;1.58;;;;;;;18.46;43.76;101625.91;5007932;28;20030;-70
2024/02/13 10:34:35;;;;;;;5.97;1.80;;;;;;;18.39;43.77;101611.47;5007877;28;20026;-72
2024/02/13 10:37:01;;;;;;;7.38;1.40;;;;;;;18.37;43.30;101613.34;5008175;28;20034;-71
2024/02/13 10:39:30;;;;;;;6.80;1.60;;;;;;;18.42;43.26;101618.31;4990151;28;20033;-71
2024/02/13 10:41:57;;;;;;;6.82;1.30;;;;;;;18.37;43.15;101608.06;4989088;28;20061;-72
2024/02/13 10:44:25;;;;;;;5.75;1.42;;;;;;;18.39;43.24;101616.75;4991398;28;20030;-73
2024/02/13 10:46:53;;;;;;;4.68;1.38;;;;;;;18.30;43.48;101607.66;4987647;28;20422;-72
2024/02/13 10:49:37;;;;;;;5.45;1.75;;;;;;;18.41;43.50;101622.75;4987721;28;20061;-74
2024/02/13 10:52:05;;;;;;;6.85;1.60;;;;;;;18.34;43.54;101615.38;4987266;28;20034;-73
2024/02/13 10:54:31;;;;;;;7.72;2.13;;;;;;;18.39;43.52;101629.94;4987438;28;20361;-72
2024/02/13 10:56:58;;;;;;;4.72;1.10;;;;;;;18.34;43.80;101618.00;5002286;28;20054;-71
2024/02/13 10:59:28;;;;;;;6.13;1.50;;;;;;;18.33;44.11;101624.25;4987241;28;20554;-74
2024/02/13 11:01:58;;;;;;;10.25;1.58;;;;;;;18.24;44.35;101609.91;4986523;28;20026;-73
2024/02/13 11:04:26;;;;;;;10.65;1.65;;;;;;;18.38;44.43;101630.06;4987086;28;20069;-73
2024/02/13 11:06:51;;;;;;;17.25;2.08;;;;;;;18.35;44.39;101628.47;4987323;28;20097;-72
2024/02/13 11:09:18;;;;;;;7.28;1.60;;;;;;;18.25;44.58;101608.97;4987315;28;20081;-73
2024/02/13 11:11:46;;;;;;;11.73;2.05;;;;;;;18.39;44.68;101637.00;4987428;28;21280;-72
2024/02/13 11:14:21;;;;;;;17.60;2.42;;;;;;;18.42;44.18;101642.94;4987962;28;20030;-72
2024/02/13 11:17:00;;;;;;;13.13;1.83;;;;;;;18.46;44.69;101639.09;4990423;28;20026;-71
2024/02/13 11:19:48;;;;;;;11.80;2.17;;;;;;;18.46;44.71;101635.63;4989614;28;20070;-71
2024/02/13 11:22:22;;;;;;;34.50;3.72;;;;;;;18.49;45.30;101640.69;4987986;28;20033;-72
2024/02/13 11:24:52;;;;;;;;;;;;;;;18.52;45.52;101639.63;4990409;28;21069;-68
2024/02/13 11:27:25;;;;;;;11.57;2.08;;;;;;;18.47;45.19;101624.97;4990994;28;19922;-70